sensor_id;sensor_type;location;lat;lon;timestamp;temperature;humidity
11609;DHT22;5860;52.018;8.536;2023-02-11T00:00:55;5.40;99.90
11609;DHT22;5860;52.018;8.536;2023-02-11T00:03:22;5.50;99.90
11609;DHT22;5860;52.018;8.536;2023-02-11T00:06:04;5.50;99.90
11609;DHT22;5860;52.018;8.536;2023-02-11T00:08:31;5.50;99.90
11609;DHT22;5860;52.018;8.536;2023-02-11T00:10:58;5.50;99.90
11609;DHT22;5860;52.018;8.536;2023-02-11T00:13:26;5.50;99.90
11609;DHT22;5860;52.018;8.536;2023-02-11T00:15:54;5.50;99.90
11609;DHT22;5860;52.018;8.536;2023-02-11T00:18:21;5.50;99.90
11609;DHT22;5860;52.018;8.536;2023-02-11T00:20:48;5.50;99.90
11609;DHT22;5860;52.018;8.536;2023-02-11T00:23:15;5.50;99.90
11609;DHT22;5860;52.018;8.536;2023-02-11T00:25:43;5.50;99.90
11609;DHT22;5860;52.018;8.536;2023-02-11T00:28:11;5.50;99.90
11609;DHT22;5860;52.018;8.536;2023-02-11T00:30:38;5.50;99.90
11609;DHT22;5860;52.018;8.536;2023-02-11T00:33:05;5.60;99.90
11609;DHT22;5860;52.018;8.536;2023-02-11T00:35:32;5.50;99.90
11609;DHT22;5860;52.018;8.536;2023-02-11T00:37:59;5.50;99.90
11609;DHT22;5860;52.018;8.536;2023-02-11T00:40:26;5.50;99.90
11609;DHT22;5860;52.018;8.536;2023-02-11T00:42:53;5.60;99.90
11609;DHT22;5860;52.018;8.536;2023-02-11T00:45:20;5.50;99.90
11609;DHT22;5860;52.018;8.536;2023-02-11T00:47:47;5.50;99.90
11609;DHT22;5860;52.018;8.536;2023-02-11T00:50:14;5.50;99.90
11609;DHT22;5860;52.018;8.536;2023-02-11T00:52:41;5.50;99.90
11609;DHT22;5860;52.018;8.536;2023-02-11T00:55:08;5.40;99.90
11609;DHT22;5860;52.018;8.536;2023-02-11T00:57:35;5.40;99.90
11609;DHT22;5860;52.018;8.536;2023-02-11T01:00:04;5.40;99.90
11609;DHT22;5860;52.018;8.536;2023-02-11T01:02:32;5.40;99.90
11609;DHT22;5860;52.018;8.536;2023-02-11T01:04:59;5.40;99.90
11609;DHT22;5860;52.018;8.536;2023-02-11T01:07:27;5.40;99.90
11609;DHT22;5860;52.018;8.536;2023-02-11T01:09:54;5.30;99.90
11609;DHT22;5860;52.018;8.536;2023-02-11T01:12:22;5.40;99.90
11609;DHT22;5860;52.018;8.536;2023-02-11T01:14:49;5.30;99.90
11609;DHT22;5860;52.018;8.536;2023-02-11T01:17:15;5.30;99.90
11609;DHT22;5860;52.018;8.536;2023-02-11T01:19:43;5.30;99.90
11609;DHT22;5860;52.018;8.536;2023-02-11T01:22:10;5.30;99.90
11609;DHT22;5860;52.018;8.536;2023-02-11T01:24:36;5.30;99.90
11609;DHT22;5860;52.018;8.536;2023-02-11T01:27:04;5.40;99.90
11609;DHT22;5860;52.018;8.536;2023-02-11T01:29:30;5.30;99.90
11609;DHT22;5860;52.018;8.536;2023-02-11T01:31:59;5.20;99.90
11609;DHT22;5860;52.018;8.536;2023-02-11T01:34:27;5.30;99.90
11609;DHT22;5860;52.018;8.536;2023-02-11T01:37:00;5.20;99.90
11609;DHT22;5860;52.018;8.536;2023-02-11T01:39:27;5.30;99.90
11609;DHT22;5860;52.018;8.536;2023-02-11T01:41:54;5.30;99.90
11609;DHT22;5860;52.018;8.536;2023-02-11T01:44:30;5.20;99.90
11609;DHT22;5860;52.018;8.536;2023-02-11T01:46:58;5.20;99.90
11609;DHT22;5860;52.018;8.536;2023-02-11T01:49:31;5.20;99.90
11609;DHT22;5860;52.018;8.536;2023-02-11T01:54:41;5.20;99.90
11609;DHT22;5860;52.018;8.536;2023-02-11T01:57:29;5.30;99.90
11609;DHT22;5860;52.018;8.536;2023-02-11T02:02:44;5.20;99.90
11609;DHT22;5860;52.018;8.536;2023-02-11T02:05:27;5.20;99.90
11609;DHT22;5860;52.018;8.536;2023-02-11T02:08:27;5.20;99.90
11609;DHT22;5860;52.018;8.536;2023-02-11T02:10:55;5.20;99.90
11609;DHT22;5860;52.018;8.536;2023-02-11T02:13:27;5.20;99.90
11609;DHT22;5860;52.018;8.536;2023-02-11T02:16:01;5.20;99.90
11609;DHT22;5860;52.018;8.536;2023-02-11T02:18:55;5.20;99.90
11609;DHT22;5860;52.018;8.536;2023-02-11T02:27:32;5.20;99.90
11609;DHT22;5860;52.018;8.536;2023-02-11T02:39:17;5.20;99.90
11609;DHT22;5860;52.018;8.536;2023-02-11T02:41:48;5.30;99.90
11609;DHT22;5860;52.018;8.536;2023-02-11T02:44:17;5.30;99.90
11609;DHT22;5860;52.018;8.536;2023-02-11T02:46:44;5.20;99.90
11609;DHT22;5860;52.018;8.536;2023-02-11T02:49:13;5.30;99.90
11609;DHT22;5860;52.018;8.536;2023-02-11T03:03:20;5.30;99.90
11609;DHT22;5860;52.018;8.536;2023-02-11T03:06:29;5.20;99.90
11609;DHT22;5860;52.018;8.536;2023-02-11T03:09:08;5.30;99.90
11609;DHT22;5860;52.018;8.536;2023-02-11T03:11:39;5.30;99.90
11609;DHT22;5860;52.018;8.536;2023-02-11T03:14:09;5.30;99.90
11609;DHT22;5860;52.018;8.536;2023-02-11T03:16:38;5.20;99.90
11609;DHT22;5860;52.018;8.536;2023-02-11T03:19:11;5.30;99.90
11609;DHT22;5860;52.018;8.536;2023-02-11T03:21:41;5.20;99.90
11609;DHT22;5860;52.018;8.536;2023-02-11T03:24:17;5.20;99.90
11609;DHT22;5860;52.018;8.536;2023-02-11T03:26:53;5.20;99.90
11609;DHT22;5860;52.018;8.536;2023-02-11T03:29:42;5.20;99.90
11609;DHT22;5860;52.018;8.536;2023-02-11T03:35:22;5.30;99.90
11609;DHT22;5860;52.018;8.536;2023-02-11T03:37:57;5.20;99.90
11609;DHT22;5860;52.018;8.536;2023-02-11T03:40:28;5.30;99.90
11609;DHT22;5860;52.018;8.536;2023-02-11T03:45:25;5.30;99.90
11609;DHT22;5860;52.018;8.536;2023-02-11T03:48:02;5.30;99.90
11609;DHT22;5860;52.018;8.536;2023-02-11T03:50:31;5.30;99.90
11609;DHT22;5860;52.018;8.536;2023-02-11T03:53:01;5.30;99.90
11609;DHT22;5860;52.018;8.536;2023-02-11T03:55:29;5.30;99.90
11609;DHT22;5860;52.018;8.536;2023-02-11T03:57:57;5.30;99.90
11609;DHT22;5860;52.018;8.536;2023-02-11T04:00:33;5.30;99.90
11609;DHT22;5860;52.018;8.536;2023-02-11T04:03:01;5.30;99.90
11609;DHT22;5860;52.018;8.536;2023-02-11T04:05:28;5.30;99.90
11609;DHT22;5860;52.018;8.536;2023-02-11T04:07:55;5.40;99.90
11609;DHT22;5860;52.018;8.536;2023-02-11T04:10:22;5.40;99.90
11609;DHT22;5860;52.018;8.536;2023-02-11T04:12:49;5.30;99.90
11609;DHT22;5860;52.018;8.536;2023-02-11T04:15:16;5.40;99.90
11609;DHT22;5860;52.018;8.536;2023-02-11T04:17:43;5.30;99.90
11609;DHT22;5860;52.018;8.536;2023-02-11T04:20:10;5.40;99.90
11609;DHT22;5860;52.018;8.536;2023-02-11T04:22:37;5.30;99.90
11609;DHT22;5860;52.018;8.536;2023-02-11T04:25:05;5.40;99.90
11609;DHT22;5860;52.018;8.536;2023-02-11T04:27:32;5.40;99.90
11609;DHT22;5860;52.018;8.536;2023-02-11T04:30:00;5.40;99.90
11609;DHT22;5860;52.018;8.536;2023-02-11T04:32:27;5.40;99.90
11609;DHT22;5860;52.018;8.536;2023-02-11T04:34:54;5.40;99.90
11609;DHT22;5860;52.018;8.536;2023-02-11T04:37:21;5.40;99.90
11609;DHT22;5860;52.018;8.536;2023-02-11T04:39:48;5.40;99.90
11609;DHT22;5860;52.018;8.536;2023-02-11T04:42:15;5.40;99.90
11609;DHT22;5860;52.018;8.536;2023-02-11T04:44:41;5.40;99.90
11609;DHT22;5860;52.018;8.536;2023-02-11T04:47:08;5.40;99.90
11609;DHT22;5860;52.018;8.536;2023-02-11T04:49:35;5.40;99.90
11609;DHT22;5860;52.018;8.536;2023-02-11T04:52:02;5.50;99.90
11609;DHT22;5860;52.018;8.536;2023-02-11T04:54:29;5.50;99.90
11609;DHT22;5860;52.018;8.536;2023-02-11T04:56:56;5.50;99.90
11609;DHT22;5860;52.018;8.536;2023-02-11T04:59:23;5.50;99.90
11609;DHT22;5860;52.018;8.536;2023-02-11T05:01:50;5.50;99.90
11609;DHT22;5860;52.018;8.536;2023-02-11T05:04:17;5.50;99.90
11609;DHT22;5860;52.018;8.536;2023-02-11T05:06:44;5.50;99.90
11609;DHT22;5860;52.018;8.536;2023-02-11T05:09:12;5.50;99.90
11609;DHT22;5860;52.018;8.536;2023-02-11T05:11:39;5.50;99.90
11609;DHT22;5860;52.018;8.536;2023-02-11T05:14:06;5.50;99.90
11609;DHT22;5860;52.018;8.536;2023-02-11T05:16:33;5.40;99.90
11609;DHT22;5860;52.018;8.536;2023-02-11T05:19:00;5.50;99.90
11609;DHT22;5860;52.018;8.536;2023-02-11T05:21:27;5.50;99.90
11609;DHT22;5860;52.018;8.536;2023-02-11T05:23:54;5.50;99.90
11609;DHT22;5860;52.018;8.536;2023-02-11T05:26:21;5.50;99.90
11609;DHT22;5860;52.018;8.536;2023-02-11T05:28:48;5.50;99.90
11609;DHT22;5860;52.018;8.536;2023-02-11T05:31:15;5.50;99.90
11609;DHT22;5860;52.018;8.536;2023-02-11T05:33:42;5.50;99.90
11609;DHT22;5860;52.018;8.536;2023-02-11T05:36:11;5.50;99.90
11609;DHT22;5860;52.018;8.536;2023-02-11T05:38:39;5.50;99.90
11609;DHT22;5860;52.018;8.536;2023-02-11T05:41:09;5.50;99.90
11609;DHT22;5860;52.018;8.536;2023-02-11T05:43:36;5.50;99.90
11609;DHT22;5860;52.018;8.536;2023-02-11T05:46:03;5.50;99.90
11609;DHT22;5860;52.018;8.536;2023-02-11T05:48:31;5.50;99.90
11609;DHT22;5860;52.018;8.536;2023-02-11T05:50:58;5.50;99.90
11609;DHT22;5860;52.018;8.536;2023-02-11T05:53:25;5.50;99.90
11609;DHT22;5860;52.018;8.536;2023-02-11T05:55:52;5.50;99.90
11609;DHT22;5860;52.018;8.536;2023-02-11T05:58:19;5.50;99.90
11609;DHT22;5860;52.018;8.536;2023-02-11T06:00:45;5.50;99.90
11609;DHT22;5860;52.018;8.536;2023-02-11T06:03:12;5.50;99.90
11609;DHT22;5860;52.018;8.536;2023-02-11T06:05:41;5.50;99.90
11609;DHT22;5860;52.018;8.536;2023-02-11T06:08:09;5.50;99.90
11609;DHT22;5860;52.018;8.536;2023-02-11T06:10:36;5.50;99.90
11609;DHT22;5860;52.018;8.536;2023-02-11T06:13:03;5.50;99.90
11609;DHT22;5860;52.018;8.536;2023-02-11T06:15:30;5.50;99.90
11609;DHT22;5860;52.018;8.536;2023-02-11T06:17:57;5.50;99.90
11609;DHT22;5860;52.018;8.536;2023-02-11T06:20:24;5.50;99.90
11609;DHT22;5860;52.018;8.536;2023-02-11T06:22:50;5.50;99.90
11609;DHT22;5860;52.018;8.536;2023-02-11T06:25:17;5.50;99.90
11609;DHT22;5860;52.018;8.536;2023-02-11T06:27:44;5.50;99.90
11609;DHT22;5860;52.018;8.536;2023-02-11T06:30:11;5.50;99.90
11609;DHT22;5860;52.018;8.536;2023-02-11T06:32:38;5.50;99.90
11609;DHT22;5860;52.018;8.536;2023-02-11T06:35:10;5.60;99.90
11609;DHT22;5860;52.018;8.536;2023-02-11T06:37:39;5.60;99.90
11609;DHT22;5860;52.018;8.536;2023-02-11T06:40:06;5.50;99.90
11609;DHT22;5860;52.018;8.536;2023-02-11T06:42:33;5.50;99.90
11609;DHT22;5860;52.018;8.536;2023-02-11T06:45:02;5.50;99.90
11609;DHT22;5860;52.018;8.536;2023-02-11T06:47:31;5.50;99.90
11609;DHT22;5860;52.018;8.536;2023-02-11T06:49:58;5.50;99.90
11609;DHT22;5860;52.018;8.536;2023-02-11T06:52:25;5.60;99.90
11609;DHT22;5860;52.018;8.536;2023-02-11T06:54:52;5.60;99.90
11609;DHT22;5860;52.018;8.536;2023-02-11T06:57:19;5.60;99.90
11609;DHT22;5860;52.018;8.536;2023-02-11T06:59:46;5.60;99.90
11609;DHT22;5860;52.018;8.536;2023-02-11T07:02:13;5.60;99.90
11609;DHT22;5860;52.018;8.536;2023-02-11T07:04:40;5.60;99.90
11609;DHT22;5860;52.018;8.536;2023-02-11T07:07:07;5.60;99.90
11609;DHT22;5860;52.018;8.536;2023-02-11T07:09:34;5.60;99.90
11609;DHT22;5860;52.018;8.536;2023-02-11T07:12:00;5.60;99.90
11609;DHT22;5860;52.018;8.536;2023-02-11T07:14:27;5.60;99.90
11609;DHT22;5860;52.018;8.536;2023-02-11T07:16:54;5.60;99.90
11609;DHT22;5860;52.018;8.536;2023-02-11T07:19:21;5.60;99.90
11609;DHT22;5860;52.018;8.536;2023-02-11T07:21:48;5.60;99.90
11609;DHT22;5860;52.018;8.536;2023-02-11T07:24:15;5.60;99.90
11609;DHT22;5860;52.018;8.536;2023-02-11T07:26:42;5.60;99.90
11609;DHT22;5860;52.018;8.536;2023-02-11T07:29:10;5.60;99.90
11609;DHT22;5860;52.018;8.536;2023-02-11T07:31:37;5.60;99.90
11609;DHT22;5860;52.018;8.536;2023-02-11T07:34:04;5.60;99.90
11609;DHT22;5860;52.018;8.536;2023-02-11T07:36:31;5.70;99.90
11609;DHT22;5860;52.018;8.536;2023-02-11T07:38:58;5.70;99.90
11609;DHT22;5860;52.018;8.536;2023-02-11T07:41:26;5.60;99.90
11609;DHT22;5860;52.018;8.536;2023-02-11T07:43:53;5.60;99.90
11609;DHT22;5860;52.018;8.536;2023-02-11T07:46:25;5.70;99.90
11609;DHT22;5860;52.018;8.536;2023-02-11T07:48:54;5.70;99.90
11609;DHT22;5860;52.018;8.536;2023-02-11T07:51:26;5.70;99.90
11609;DHT22;5860;52.018;8.536;2023-02-11T07:53:54;5.70;99.90
11609;DHT22;5860;52.018;8.536;2023-02-11T07:56:22;5.70;99.90
11609;DHT22;5860;52.018;8.536;2023-02-11T07:58:49;5.70;99.90
11609;DHT22;5860;52.018;8.536;2023-02-11T08:01:20;5.70;99.90
11609;DHT22;5860;52.018;8.536;2023-02-11T08:03:51;5.70;99.90
11609;DHT22;5860;52.018;8.536;2023-02-11T08:06:21;5.70;99.90
11609;DHT22;5860;52.018;8.536;2023-02-11T08:08:48;5.70;99.90
11609;DHT22;5860;52.018;8.536;2023-02-11T08:11:19;5.70;99.90
11609;DHT22;5860;52.018;8.536;2023-02-11T08:13:48;5.70;99.90
11609;DHT22;5860;52.018;8.536;2023-02-11T08:16:21;5.70;99.90
11609;DHT22;5860;52.018;8.536;2023-02-11T08:18:49;5.70;99.90
11609;DHT22;5860;52.018;8.536;2023-02-11T08:21:17;5.70;99.90
11609;DHT22;5860;52.018;8.536;2023-02-11T08:23:45;5.80;99.90
11609;DHT22;5860;52.018;8.536;2023-02-11T08:26:15;5.80;99.90
11609;DHT22;5860;52.018;8.536;2023-02-11T08:28:44;5.80;99.90
11609;DHT22;5860;52.018;8.536;2023-02-11T08:31:15;5.80;99.90
11609;DHT22;5860;52.018;8.536;2023-02-11T08:33:43;5.80;99.90
11609;DHT22;5860;52.018;8.536;2023-02-11T08:36:15;5.80;99.90
11609;DHT22;5860;52.018;8.536;2023-02-11T08:38:43;5.70;99.90
11609;DHT22;5860;52.018;8.536;2023-02-11T08:41:10;5.70;99.90
11609;DHT22;5860;52.018;8.536;2023-02-11T08:43:41;5.80;99.90
11609;DHT22;5860;52.018;8.536;2023-02-11T08:46:11;5.70;99.90
11609;DHT22;5860;52.018;8.536;2023-02-11T08:48:38;5.80;99.90
11609;DHT22;5860;52.018;8.536;2023-02-11T08:51:07;5.80;99.90
11609;DHT22;5860;52.018;8.536;2023-02-11T08:53:35;5.80;99.90
11609;DHT22;5860;52.018;8.536;2023-02-11T08:56:02;5.80;99.90
11609;DHT22;5860;52.018;8.536;2023-02-11T08:58:29;5.80;99.90
11609;DHT22;5860;52.018;8.536;2023-02-11T09:00:56;5.80;99.90
11609;DHT22;5860;52.018;8.536;2023-02-11T09:03:23;5.80;99.90
11609;DHT22;5860;52.018;8.536;2023-02-11T09:05:52;5.80;99.90
11609;DHT22;5860;52.018;8.536;2023-02-11T09:08:19;5.80;99.90
11609;DHT22;5860;52.018;8.536;2023-02-11T09:10:46;5.80;99.90
11609;DHT22;5860;52.018;8.536;2023-02-11T09:13:14;5.90;99.90
11609;DHT22;5860;52.018;8.536;2023-02-11T09:15:47;5.90;99.90
11609;DHT22;5860;52.018;8.536;2023-02-11T09:18:15;5.90;99.90
11609;DHT22;5860;52.018;8.536;2023-02-11T09:20:42;5.90;99.90
11609;DHT22;5860;52.018;8.536;2023-02-11T09:23:09;5.90;99.90
11609;DHT22;5860;52.018;8.536;2023-02-11T09:25:38;6.00;99.90
11609;DHT22;5860;52.018;8.536;2023-02-11T09:28:07;6.00;99.90
11609;DHT22;5860;52.018;8.536;2023-02-11T09:30:38;6.00;99.90
11609;DHT22;5860;52.018;8.536;2023-02-11T09:33:06;6.00;99.90
11609;DHT22;5860;52.018;8.536;2023-02-11T09:35:33;6.00;99.90
11609;DHT22;5860;52.018;8.536;2023-02-11T09:38:00;6.10;99.90
11609;DHT22;5860;52.018;8.536;2023-02-11T09:40:27;6.10;99.90
11609;DHT22;5860;52.018;8.536;2023-02-11T09:43:10;6.10;99.90
11609;DHT22;5860;52.018;8.536;2023-02-11T09:45:37;6.10;99.90
11609;DHT22;5860;52.018;8.536;2023-02-11T09:48:16;6.10;99.90
11609;DHT22;5860;52.018;8.536;2023-02-11T09:50:57;6.10;99.90
11609;DHT22;5860;52.018;8.536;2023-02-11T09:53:28;6.10;99.90
11609;DHT22;5860;52.018;8.536;2023-02-11T09:55:58;6.10;99.90
11609;DHT22;5860;52.018;8.536;2023-02-11T09:58:32;6.10;99.90
11609;DHT22;5860;52.018;8.536;2023-02-11T10:22:53;6.30;99.90
11609;DHT22;5860;52.018;8.536;2023-02-11T10:25:35;6.40;99.90
11609;DHT22;5860;52.018;8.536;2023-02-11T10:28:21;6.40;99.90
11609;DHT22;5860;52.018;8.536;2023-02-11T10:30:57;6.30;99.90
11609;DHT22;5860;52.018;8.536;2023-02-11T10:36:25;6.40;99.90
11609;DHT22;5860;52.018;8.536;2023-02-11T10:38:53;6.50;99.90
11609;DHT22;5860;52.018;8.536;2023-02-11T10:41:32;6.50;99.90
11609;DHT22;5860;52.018;8.536;2023-02-11T10:44:04;6.50;99.90
11609;DHT22;5860;52.018;8.536;2023-02-11T10:46:35;6.50;99.90
11609;DHT22;5860;52.018;8.536;2023-02-11T10:49:03;6.50;99.90
11609;DHT22;5860;52.018;8.536;2023-02-11T10:51:31;6.50;99.90
11609;DHT22;5860;52.018;8.536;2023-02-11T10:56:33;6.50;99.90
11609;DHT22;5860;52.018;8.536;2023-02-11T10:59:04;6.60;99.90
11609;DHT22;5860;52.018;8.536;2023-02-11T11:01:52;6.60;99.90
11609;DHT22;5860;52.018;8.536;2023-02-11T11:10:03;6.50;99.90
11609;DHT22;5860;52.018;8.536;2023-02-11T11:17:45;6.70;99.90
11609;DHT22;5860;52.018;8.536;2023-02-11T11:20:18;6.70;99.90
11609;DHT22;5860;52.018;8.536;2023-02-11T11:22:47;6.70;99.90
11609;DHT22;5860;52.018;8.536;2023-02-11T11:25:23;6.80;99.90
11609;DHT22;5860;52.018;8.536;2023-02-11T11:27:56;6.90;99.90
11609;DHT22;5860;52.018;8.536;2023-02-11T11:30:32;6.80;99.90
11609;DHT22;5860;52.018;8.536;2023-02-11T11:33:00;6.80;99.90
11609;DHT22;5860;52.018;8.536;2023-02-11T11:35:29;6.80;99.90
11609;DHT22;5860;52.018;8.536;2023-02-11T11:38:01;6.80;99.90
11609;DHT22;5860;52.018;8.536;2023-02-11T11:40:33;6.80;99.90
11609;DHT22;5860;52.018;8.536;2023-02-11T11:43:19;6.80;99.90
11609;DHT22;5860;52.018;8.536;2023-02-11T11:45:56;6.80;99.90
11609;DHT22;5860;52.018;8.536;2023-02-11T11:48:33;6.80;99.90
11609;DHT22;5860;52.018;8.536;2023-02-11T11:51:04;6.80;99.90
11609;DHT22;5860;52.018;8.536;2023-02-11T11:53:40;6.90;99.90
11609;DHT22;5860;52.018;8.536;2023-02-11T11:56:13;6.90;99.90
11609;DHT22;5860;52.018;8.536;2023-02-11T11:58:42;6.90;99.90
11609;DHT22;5860;52.018;8.536;2023-02-11T12:13:32;7.10;99.90
11609;DHT22;5860;52.018;8.536;2023-02-11T12:16:18;7.00;99.90
11609;DHT22;5860;52.018;8.536;2023-02-11T12:27:41;7.20;99.90
11609;DHT22;5860;52.018;8.536;2023-02-11T12:30:17;7.20;99.90
11609;DHT22;5860;52.018;8.536;2023-02-11T12:35:30;7.20;99.90
11609;DHT22;5860;52.018;8.536;2023-02-11T12:40:45;7.30;99.90
11609;DHT22;5860;52.018;8.536;2023-02-11T12:43:40;7.20;99.90
11609;DHT22;5860;52.018;8.536;2023-02-11T12:54:37;7.30;99.90
11609;DHT22;5860;52.018;8.536;2023-02-11T12:57:25;7.30;99.90
11609;DHT22;5860;52.018;8.536;2023-02-11T13:05:28;7.40;99.90
11609;DHT22;5860;52.018;8.536;2023-02-11T13:11:26;7.40;99.90
11609;DHT22;5860;52.018;8.536;2023-02-11T13:14:14;7.50;99.90
11609;DHT22;5860;52.018;8.536;2023-02-11T13:16:45;7.50;99.90
11609;DHT22;5860;52.018;8.536;2023-02-11T13:21:58;7.40;99.90
11609;DHT22;5860;52.018;8.536;2023-02-11T13:24:30;7.50;99.90
11609;DHT22;5860;52.018;8.536;2023-02-11T13:35:34;7.60;99.90
11609;DHT22;5860;52.018;8.536;2023-02-11T13:38:16;7.60;99.90
11609;DHT22;5860;52.018;8.536;2023-02-11T13:40:44;7.60;99.90
11609;DHT22;5860;52.018;8.536;2023-02-11T13:43:23;7.60;99.90
11609;DHT22;5860;52.018;8.536;2023-02-11T13:45:52;7.70;99.90
11609;DHT22;5860;52.018;8.536;2023-02-11T13:48:38;7.70;99.90
11609;DHT22;5860;52.018;8.536;2023-02-11T13:51:16;7.80;99.90
11609;DHT22;5860;52.018;8.536;2023-02-11T13:56:35;7.80;99.90
11609;DHT22;5860;52.018;8.536;2023-02-11T14:16:22;7.80;99.90
11609;DHT22;5860;52.018;8.536;2023-02-11T14:19:04;7.90;99.90
11609;DHT22;5860;52.018;8.536;2023-02-11T14:21:37;7.90;99.90
11609;DHT22;5860;52.018;8.536;2023-02-11T14:29:12;8.00;99.90
11609;DHT22;5860;52.018;8.536;2023-02-11T14:42:51;8.00;99.90
11609;DHT22;5860;52.018;8.536;2023-02-11T14:45:23;8.00;99.90
11609;DHT22;5860;52.018;8.536;2023-02-11T14:48:07;8.00;99.90
11609;DHT22;5860;52.018;8.536;2023-02-11T14:50:44;8.00;99.90
11609;DHT22;5860;52.018;8.536;2023-02-11T14:53:18;8.10;99.90
11609;DHT22;5860;52.018;8.536;2023-02-11T14:55:49;8.10;99.90
11609;DHT22;5860;52.018;8.536;2023-02-11T14:58:24;8.00;99.90
11609;DHT22;5860;52.018;8.536;2023-02-11T15:00:57;8.00;99.90
11609;DHT22;5860;52.018;8.536;2023-02-11T15:08:44;7.90;99.90
11609;DHT22;5860;52.018;8.536;2023-02-11T15:11:15;7.90;99.90
11609;DHT22;5860;52.018;8.536;2023-02-11T15:13:43;7.90;99.90
11609;DHT22;5860;52.018;8.536;2023-02-11T15:16:16;7.90;99.90
11609;DHT22;5860;52.018;8.536;2023-02-11T15:18:57;7.90;99.90
11609;DHT22;5860;52.018;8.536;2023-02-11T15:21:29;7.90;99.90
11609;DHT22;5860;52.018;8.536;2023-02-11T15:23:58;7.90;99.90
11609;DHT22;5860;52.018;8.536;2023-02-11T15:26:25;7.80;99.90
11609;DHT22;5860;52.018;8.536;2023-02-11T15:28:53;7.80;99.90
11609;DHT22;5860;52.018;8.536;2023-02-11T15:31:23;7.80;99.90
11609;DHT22;5860;52.018;8.536;2023-02-11T15:33:51;7.80;99.90
11609;DHT22;5860;52.018;8.536;2023-02-11T15:36:22;7.80;99.90
11609;DHT22;5860;52.018;8.536;2023-02-11T15:42:35;7.80;99.90
11609;DHT22;5860;52.018;8.536;2023-02-11T15:45:23;7.80;99.90
11609;DHT22;5860;52.018;8.536;2023-02-11T15:48:21;7.90;99.90
11609;DHT22;5860;52.018;8.536;2023-02-11T15:50:59;7.90;99.90
11609;DHT22;5860;52.018;8.536;2023-02-11T15:53:40;7.90;99.90
11609;DHT22;5860;52.018;8.536;2023-02-11T15:58:40;7.80;99.90
11609;DHT22;5860;52.018;8.536;2023-02-11T16:01:10;7.80;99.90
11609;DHT22;5860;52.018;8.536;2023-02-11T16:03:40;7.90;99.90
11609;DHT22;5860;52.018;8.536;2023-02-11T16:06:38;7.90;99.90
11609;DHT22;5860;52.018;8.536;2023-02-11T16:16:57;7.90;99.90
11609;DHT22;5860;52.018;8.536;2023-02-11T16:19:26;7.80;99.90
11609;DHT22;5860;52.018;8.536;2023-02-11T16:21:55;7.80;99.90
11609;DHT22;5860;52.018;8.536;2023-02-11T16:24:31;7.90;99.90
11609;DHT22;5860;52.018;8.536;2023-02-11T16:27:04;7.90;99.90
11609;DHT22;5860;52.018;8.536;2023-02-11T16:29:34;7.80;99.90
11609;DHT22;5860;52.018;8.536;2023-02-11T16:32:16;7.80;99.90
11609;DHT22;5860;52.018;8.536;2023-02-11T16:34:45;7.80;99.90
11609;DHT22;5860;52.018;8.536;2023-02-11T16:37:11;7.80;99.90
11609;DHT22;5860;52.018;8.536;2023-02-11T16:39:39;7.70;99.90
11609;DHT22;5860;52.018;8.536;2023-02-11T16:42:05;7.80;99.90
11609;DHT22;5860;52.018;8.536;2023-02-11T16:44:33;7.80;99.90
11609;DHT22;5860;52.018;8.536;2023-02-11T16:47:01;7.80;99.90
11609;DHT22;5860;52.018;8.536;2023-02-11T16:49:35;7.80;99.90
11609;DHT22;5860;52.018;8.536;2023-02-11T16:52:08;7.80;99.90
11609;DHT22;5860;52.018;8.536;2023-02-11T16:54:38;7.80;99.90
11609;DHT22;5860;52.018;8.536;2023-02-11T16:57:16;7.80;99.90
11609;DHT22;5860;52.018;8.536;2023-02-11T16:59:43;7.80;99.90
11609;DHT22;5860;52.018;8.536;2023-02-11T17:02:25;7.70;99.90
11609;DHT22;5860;52.018;8.536;2023-02-11T17:04:54;7.80;99.90
11609;DHT22;5860;52.018;8.536;2023-02-11T17:07:22;7.80;99.90
11609;DHT22;5860;52.018;8.536;2023-02-11T17:09:49;7.80;99.90
11609;DHT22;5860;52.018;8.536;2023-02-11T17:12:17;7.80;99.90
11609;DHT22;5860;52.018;8.536;2023-02-11T17:14:45;7.80;99.90
11609;DHT22;5860;52.018;8.536;2023-02-11T17:17:13;7.80;99.90
11609;DHT22;5860;52.018;8.536;2023-02-11T17:19:40;7.80;99.90
11609;DHT22;5860;52.018;8.536;2023-02-11T17:22:06;7.80;99.90
11609;DHT22;5860;52.018;8.536;2023-02-11T17:24:33;7.80;99.90
11609;DHT22;5860;52.018;8.536;2023-02-11T17:27:00;7.70;99.90
11609;DHT22;5860;52.018;8.536;2023-02-11T17:29:30;7.70;99.90
11609;DHT22;5860;52.018;8.536;2023-02-11T17:31:57;7.70;99.90
11609;DHT22;5860;52.018;8.536;2023-02-11T17:34:24;7.70;99.90
11609;DHT22;5860;52.018;8.536;2023-02-11T17:36:51;7.70;99.90
11609;DHT22;5860;52.018;8.536;2023-02-11T17:39:18;7.70;99.90
11609;DHT22;5860;52.018;8.536;2023-02-11T17:41:46;7.70;99.90
11609;DHT22;5860;52.018;8.536;2023-02-11T17:44:13;7.70;99.90
11609;DHT22;5860;52.018;8.536;2023-02-11T17:46:42;7.70;99.90
11609;DHT22;5860;52.018;8.536;2023-02-11T17:49:10;7.70;99.90
11609;DHT22;5860;52.018;8.536;2023-02-11T17:51:38;7.70;99.90
11609;DHT22;5860;52.018;8.536;2023-02-11T17:54:09;7.80;99.90
11609;DHT22;5860;52.018;8.536;2023-02-11T17:56:36;7.70;99.90
11609;DHT22;5860;52.018;8.536;2023-02-11T17:59:04;7.70;99.90
11609;DHT22;5860;52.018;8.536;2023-02-11T18:01:32;7.70;99.90
11609;DHT22;5860;52.018;8.536;2023-02-11T18:04:00;7.70;99.90
11609;DHT22;5860;52.018;8.536;2023-02-11T18:06:27;7.70;99.90
11609;DHT22;5860;52.018;8.536;2023-02-11T18:08:56;7.70;99.90
11609;DHT22;5860;52.018;8.536;2023-02-11T18:11:25;7.80;99.90
11609;DHT22;5860;52.018;8.536;2023-02-11T18:13:53;7.70;99.90
11609;DHT22;5860;52.018;8.536;2023-02-11T18:16:21;7.70;99.90
11609;DHT22;5860;52.018;8.536;2023-02-11T18:18:49;7.70;99.90
11609;DHT22;5860;52.018;8.536;2023-02-11T18:21:18;7.70;99.90
11609;DHT22;5860;52.018;8.536;2023-02-11T18:23:46;7.70;99.90
11609;DHT22;5860;52.018;8.536;2023-02-11T18:26:14;7.70;99.90
11609;DHT22;5860;52.018;8.536;2023-02-11T18:28:42;7.70;99.90
11609;DHT22;5860;52.018;8.536;2023-02-11T18:31:12;7.70;99.90
11609;DHT22;5860;52.018;8.536;2023-02-11T18:33:40;7.70;99.90
11609;DHT22;5860;52.018;8.536;2023-02-11T18:36:10;7.70;99.90
11609;DHT22;5860;52.018;8.536;2023-02-11T18:38:38;7.70;99.90
11609;DHT22;5860;52.018;8.536;2023-02-11T18:41:06;7.70;99.90
11609;DHT22;5860;52.018;8.536;2023-02-11T18:43:34;7.70;99.90
11609;DHT22;5860;52.018;8.536;2023-02-11T18:46:06;7.70;99.90
11609;DHT22;5860;52.018;8.536;2023-02-11T18:48:33;7.70;99.90
11609;DHT22;5860;52.018;8.536;2023-02-11T18:51:00;7.70;99.90
11609;DHT22;5860;52.018;8.536;2023-02-11T18:53:27;7.70;99.90
11609;DHT22;5860;52.018;8.536;2023-02-11T18:55:54;7.70;99.90
11609;DHT22;5860;52.018;8.536;2023-02-11T18:58:21;7.70;99.90
11609;DHT22;5860;52.018;8.536;2023-02-11T19:00:49;7.70;99.90
11609;DHT22;5860;52.018;8.536;2023-02-11T19:03:16;7.70;99.90
11609;DHT22;5860;52.018;8.536;2023-02-11T19:05:45;7.70;99.90
11609;DHT22;5860;52.018;8.536;2023-02-11T19:08:13;7.70;99.90
11609;DHT22;5860;52.018;8.536;2023-02-11T19:10:42;7.70;99.90
11609;DHT22;5860;52.018;8.536;2023-02-11T19:13:10;7.70;99.90
11609;DHT22;5860;52.018;8.536;2023-02-11T19:15:45;7.70;99.90
11609;DHT22;5860;52.018;8.536;2023-02-11T19:18:13;7.70;99.90
11609;DHT22;5860;52.018;8.536;2023-02-11T19:20:42;7.70;99.90
11609;DHT22;5860;52.018;8.536;2023-02-11T19:23:09;7.70;99.90
11609;DHT22;5860;52.018;8.536;2023-02-11T19:25:42;7.70;99.90
11609;DHT22;5860;52.018;8.536;2023-02-11T19:28:10;7.70;99.90